createdAt,value
2023-01-28T00:01:06.733Z,52.79
2023-01-28T00:03:35.273Z,52.16
2023-01-28T00:06:04.034Z,52.54
2023-01-28T00:08:35.839Z,52.54
2023-01-28T00:11:04.379Z,52.32
2023-01-28T00:13:32.227Z,52.46
2023-01-28T00:16:00.547Z,52.13
2023-01-28T00:18:28.374Z,51.91
2023-01-28T00:20:59.847Z,52.18
2023-01-28T00:23:27.975Z,51.92
2023-01-28T00:25:59.274Z,52.19
2023-01-28T00:28:26.986Z,52.30
2023-01-28T00:30:55.979Z,51.78
2023-01-28T00:33:24.023Z,51.52
2023-01-28T00:35:59.016Z,51.43
2023-01-28T00:38:26.718Z,51.25
2023-01-28T00:40:54.598Z,51.64
2023-01-28T00:43:23.641Z,51.56
2023-01-28T00:45:52.504Z,51.30
2023-01-28T00:48:20.433Z,51.23
2023-01-28T00:50:49.295Z,51.49
2023-01-28T00:53:17.224Z,51.19
2023-01-28T00:55:45.019Z,51.09
2023-01-28T00:58:12.807Z,50.85
2023-01-28T01:00:43.212Z,51.08
2023-01-28T01:03:10.882Z,51.42
2023-01-28T01:05:38.699Z,51.42
2023-01-28T01:08:06.928Z,50.82
2023-01-28T01:10:41.906Z,50.89
2023-01-28T01:13:10.140Z,51.34
2023-01-28T01:15:37.979Z,51.31
2023-01-28T01:18:07.404Z,50.88
2023-01-28T01:20:39.958Z,51.30
2023-01-28T01:23:07.815Z,51.83
2023-01-28T01:25:35.477Z,51.42
2023-01-28T01:28:05.989Z,51.28
2023-01-28T01:30:33.657Z,51.53
2023-01-28T01:33:03.476Z,51.55
2023-01-28T01:35:32.546Z,51.54
2023-01-28T01:38:00.408Z,51.55
2023-01-28T01:40:29.869Z,52.14
2023-01-28T01:42:57.836Z,51.71
2023-01-28T01:45:25.525Z,52.07
2023-01-28T01:47:57.274Z,51.55
2023-01-28T01:50:26.717Z,51.50
2023-01-28T01:52:57.292Z,52.09
2023-01-28T01:55:26.954Z,51.77
2023-01-28T01:57:56.058Z,51.83
2023-01-28T02:00:26.783Z,51.65
2023-01-28T02:02:54.735Z,51.48
2023-01-28T02:05:23.078Z,51.05
2023-01-28T02:07:52.070Z,51.39
2023-01-28T02:10:21.313Z,51.59
2023-01-28T02:12:51.502Z,51.22
2023-01-28T02:15:20.391Z,51.05
2023-01-28T02:17:48.550Z,51.72
2023-01-28T02:20:19.230Z,51.57
2023-01-28T02:23:17.142Z,51.43
2023-01-28T02:26:02.071Z,51.23
2023-01-28T02:28:33.564Z,51.21
2023-01-28T02:31:04.765Z,50.85
2023-01-28T02:33:36.019Z,51.27
2023-01-28T02:36:07.451Z,50.85
2023-01-28T02:38:37.428Z,50.75
2023-01-28T02:41:06.886Z,50.98
2023-01-28T02:43:36.886Z,50.81
2023-01-28T02:46:31.783Z,50.74
2023-01-28T02:48:59.586Z,50.81
2023-01-28T02:51:32.983Z,51.11
2023-01-28T02:54:01.657Z,50.56
2023-01-28T02:56:31.209Z,51.04
2023-01-28T02:59:22.887Z,51.03
2023-01-28T03:01:50.626Z,51.28
2023-01-28T03:04:20.976Z,50.67
2023-01-28T03:06:51.260Z,51.09
2023-01-28T03:09:24.733Z,51.14
2023-01-28T03:12:14.277Z,51.23
2023-01-28T03:15:01.425Z,50.40
2023-01-28T03:17:48.424Z,50.56
2023-01-28T03:20:34.092Z,51.16
2023-01-28T03:23:21.437Z,50.79
2023-01-28T03:26:09.296Z,51.22
2023-01-28T03:28:54.354Z,51.16
2023-01-28T03:31:41.028Z,50.50
2023-01-28T03:34:27.176Z,50.49
2023-01-28T03:36:54.853Z,50.17
2023-01-28T03:39:23.923Z,50.84
2023-01-28T03:42:01.541Z,50.95
2023-01-28T03:44:46.671Z,50.86
2023-01-28T03:47:15.811Z,50.43
2023-01-28T03:49:45.632Z,50.89
2023-01-28T03:52:13.488Z,50.43
2023-01-28T03:54:41.257Z,50.14
2023-01-28T03:57:09.119Z,50.24
2023-01-28T03:59:36.875Z,49.66
2023-01-28T04:02:05.440Z,50.17
2023-01-28T04:04:34.620Z,50.09
2023-01-28T04:07:02.309Z,49.36
2023-01-28T04:09:30.106Z,49.74
2023-01-28T04:11:57.815Z,49.20
2023-01-28T04:14:25.619Z,49.22
2023-01-28T04:16:54.824Z,49.50
2023-01-28T04:19:22.596Z,49.66
2023-01-28T04:21:53.976Z,49.57
2023-01-28T04:24:21.854Z,48.94
2023-01-28T04:26:49.713Z,49.52
2023-01-28T04:29:17.413Z,49.20
2023-01-28T04:31:46.458Z,49.40
2023-01-28T04:34:14.191Z,48.71
2023-01-28T04:36:41.956Z,49.49
2023-01-28T04:39:11.070Z,48.79
2023-01-28T04:41:38.784Z,49.54
2023-01-28T04:44:06.484Z,48.93
2023-01-28T04:46:34.286Z,49.28
2023-01-28T04:49:02.296Z,49.48
2023-01-28T04:51:30.075Z,48.60
2023-01-28T04:53:57.831Z,48.99
2023-01-28T04:56:26.999Z,49.08
2023-01-28T04:58:54.713Z,48.43
2023-01-28T05:01:22.459Z,48.69
2023-01-28T05:03:52.076Z,48.08
2023-01-28T05:06:19.779Z,48.06
2023-01-28T05:08:47.506Z,48.01
2023-01-28T05:11:15.330Z,48.17
2023-01-28T05:13:44.585Z,48.31
2023-01-28T05:16:12.519Z,48.92
2023-01-28T05:18:40.452Z,47.99
2023-01-28T05:23:42.472Z,47.99
2023-01-28T05:26:10.132Z,48.54
2023-01-28T05:28:37.966Z,48.01
2023-01-28T05:31:07.576Z,47.75
2023-01-28T05:33:35.469Z,48.42
2023-01-28T05:36:03.163Z,48.13
2023-01-28T05:38:31.252Z,47.92
2023-01-28T05:40:59.023Z,48.30
2023-01-28T05:43:26.809Z,47.51
2023-01-28T05:45:54.717Z,48.26
2023-01-28T05:48:24.101Z,47.84
2023-01-28T05:50:51.840Z,47.38
2023-01-28T05:53:19.607Z,47.39
2023-01-28T05:55:49.156Z,47.20
2023-01-28T05:58:17.146Z,47.37
2023-01-28T06:00:44.836Z,47.87
2023-01-28T06:03:12.618Z,47.80
2023-01-28T06:05:41.663Z,46.46
2023-01-28T06:08:10.224Z,47.41
2023-01-28T06:10:37.912Z,47.28
2023-01-28T06:13:05.717Z,46.87
2023-01-28T06:15:33.504Z,47.37
2023-01-28T06:18:02.398Z,46.45
2023-01-28T06:20:30.079Z,47.53
2023-01-28T06:22:59.094Z,46.98
2023-01-28T06:25:27.040Z,47.19
2023-01-28T06:27:54.956Z,47.28
2023-01-28T06:30:22.698Z,47.74
2023-01-28T06:32:55.360Z,47.27
2023-01-28T06:35:23.185Z,46.23
2023-01-28T06:37:50.819Z,47.15
2023-01-28T06:40:20.227Z,46.92
2023-01-28T06:42:47.872Z,47.49
2023-01-28T06:45:15.740Z,46.67
2023-01-28T06:47:43.400Z,46.90
2023-01-28T06:50:12.635Z,47.25
2023-01-28T06:52:41.330Z,46.55
2023-01-28T06:55:09.658Z,46.72
2023-01-28T06:57:40.345Z,46.49
2023-01-28T07:00:10.495Z,46.40
2023-01-28T07:02:38.213Z,46.67
2023-01-28T07:05:06.535Z,46.81
2023-01-28T07:07:34.288Z,46.29
2023-01-28T07:10:02.132Z,46.87
2023-01-28T07:12:29.822Z,46.49
2023-01-28T07:14:58.964Z,46.19
2023-01-28T07:17:26.726Z,46.80
2023-01-28T07:19:54.378Z,45.99
2023-01-28T07:22:22.039Z,45.76
2023-01-28T07:24:50.175Z,46.33
2023-01-28T07:27:17.857Z,46.11
2023-01-28T07:29:45.496Z,45.96
2023-01-28T07:32:14.652Z,46.27
2023-01-28T07:34:43.155Z,46.77
2023-01-28T07:37:10.887Z,46.42
2023-01-28T07:39:38.625Z,45.59
2023-01-28T07:42:06.616Z,45.91
2023-01-28T07:44:35.828Z,46.56
2023-01-28T07:47:03.709Z,46.01
2023-01-28T07:49:32.927Z,46.12
2023-01-28T07:52:00.684Z,45.90
2023-01-28T07:54:28.528Z,45.39
2023-01-28T07:56:56.302Z,45.54
2023-01-28T07:59:24.210Z,46.62
2023-01-28T08:01:54.934Z,45.91
2023-01-28T08:04:23.234Z,46.52
2023-01-28T08:06:52.613Z,45.50
2023-01-28T08:09:20.551Z,45.78
2023-01-28T08:11:48.378Z,46.29
2023-01-28T08:14:16.286Z,45.41
2023-01-28T08:16:44.398Z,45.49
2023-01-28T08:19:12.305Z,45.62
2023-01-28T08:21:40.092Z,45.67
2023-01-28T08:24:09.678Z,46.15
2023-01-28T08:26:37.542Z,45.83
2023-01-28T08:29:05.619Z,46.26
2023-01-28T08:31:33.483Z,45.44
2023-01-28T08:34:02.316Z,45.24
2023-01-28T08:36:30.211Z,45.54
2023-01-28T08:38:57.934Z,46.04
2023-01-28T08:41:29.228Z,46.02
2023-01-28T08:43:56.876Z,45.63
2023-01-28T08:46:25.735Z,46.02
2023-01-28T08:48:53.446Z,45.52
2023-01-28T08:51:21.212Z,45.71
2023-01-28T08:53:48.842Z,45.67
2023-01-28T08:56:16.675Z,45.49
2023-01-28T08:58:46.033Z,45.36
2023-01-28T09:01:13.850Z,46.20
2023-01-28T09:03:41.561Z,46.15
2023-01-28T09:06:10.612Z,44.97
2023-01-28T09:08:38.351Z,45.85
2023-01-28T09:11:06.309Z,45.24
2023-01-28T09:13:33.988Z,45.25
2023-01-28T09:16:05.498Z,45.87
2023-01-28T09:18:33.409Z,45.24
2023-01-28T09:21:01.100Z,45.66
2023-01-28T09:24:06.370Z,45.04
2023-01-28T09:26:34.539Z,44.48
2023-01-28T09:29:02.479Z,44.56
2023-01-28T09:31:31.850Z,45.30
2023-01-28T09:33:59.681Z,44.77
2023-01-28T09:36:27.328Z,44.64
2023-01-28T09:38:55.327Z,44.52
2023-01-28T09:41:26.714Z,45.32
2023-01-28T09:44:04.714Z,44.48
2023-01-28T09:46:34.967Z,45.27
2023-01-28T09:49:05.136Z,44.96
2023-01-28T09:51:34.954Z,44.99
2023-01-28T09:54:04.775Z,44.95
2023-01-28T09:56:33.559Z,44.85
2023-01-28T09:59:01.362Z,44.64
2023-01-28T10:01:39.931Z,44.75
2023-01-28T10:04:13.612Z,44.00
2023-01-28T10:06:46.893Z,44.35
2023-01-28T10:09:22.624Z,44.54
2023-01-28T10:11:57.671Z,44.14
2023-01-28T10:14:29.844Z,43.75
2023-01-28T10:17:01.632Z,43.63
2023-01-28T10:19:31.191Z,43.43
2023-01-28T10:22:01.573Z,44.01
2023-01-28T10:24:31.307Z,43.78
2023-01-28T10:26:59.203Z,43.60
2023-01-28T10:29:28.184Z,43.32
2023-01-28T10:31:56.975Z,42.95
2023-01-28T10:34:26.656Z,43.03
2023-01-28T10:36:55.632Z,43.59
2023-01-28T10:39:24.642Z,43.34
2023-01-28T10:41:58.263Z,43.60
2023-01-28T10:44:32.006Z,43.22
2023-01-28T10:47:03.311Z,43.23
2023-01-28T10:49:33.020Z,43.27
2023-01-28T10:52:00.875Z,43.52
2023-01-28T10:54:29.484Z,43.16
2023-01-28T10:56:58.776Z,43.63
2023-01-28T10:59:27.714Z,43.31
2023-01-28T11:01:56.209Z,42.94
2023-01-28T11:04:25.381Z,42.75
2023-01-28T11:06:59.112Z,42.81
2023-01-28T11:09:32.439Z,42.69
2023-01-28T11:12:14.345Z,42.19
2023-01-28T11:14:50.529Z,42.37
2023-01-28T11:17:29.263Z,42.19
2023-01-28T11:19:59.572Z,42.46
2023-01-28T11:22:54.571Z,42.36
2023-01-28T11:25:27.945Z,42.32
2023-01-28T11:28:06.243Z,42.55
2023-01-28T11:33:06.154Z,42.36
2023-01-28T11:35:33.925Z,42.19
2023-01-28T11:38:03.212Z,42.24
2023-01-28T11:40:31.037Z,41.28
2023-01-28T11:42:59.910Z,41.67
2023-01-28T11:45:33.933Z,40.93
2023-01-28T11:48:08.015Z,41.88
2023-01-28T11:50:41.085Z,41.75
2023-01-28T11:53:53.387Z,41.89
2023-01-28T11:56:28.499Z,42.02
2023-01-28T11:59:04.779Z,41.67
2023-01-28T12:01:40.892Z,41.80
2023-01-28T12:04:24.990Z,41.39
2023-01-28T12:07:05.517Z,41.55
2023-01-28T12:09:40.555Z,41.30
2023-01-28T12:12:20.820Z,41.42
2023-01-28T12:15:05.282Z,41.89
2023-01-28T12:17:38.201Z,41.27
2023-01-28T12:20:11.493Z,40.29
2023-01-28T12:23:06.680Z,41.22
2023-01-28T12:25:44.243Z,41.27
2023-01-28T12:28:16.919Z,41.04
2023-01-28T12:30:59.373Z,41.47
2023-01-28T12:33:47.572Z,40.97
2023-01-28T12:36:22.353Z,41.63
2023-01-28T12:38:54.301Z,41.66
2023-01-28T12:41:24.626Z,41.79
2023-01-28T12:43:55.129Z,41.46
2023-01-28T12:46:38.961Z,41.44
2023-01-28T12:49:08.145Z,40.88
2023-01-28T12:51:39.576Z,40.98
2023-01-28T12:54:10.201Z,40.46
2023-01-28T12:56:41.144Z,40.08
2023-01-28T12:59:12.536Z,39.74
2023-01-28T13:01:43.008Z,39.14
2023-01-28T13:04:14.932Z,39.02
2023-01-28T13:06:43.343Z,38.96
2023-01-28T13:09:15.212Z,38.25
2023-01-28T13:11:44.549Z,37.95
2023-01-28T13:14:13.807Z,38.46
2023-01-28T13:16:41.584Z,38.04
2023-01-28T13:19:22.856Z,38.33
2023-01-28T13:21:50.751Z,38.30
2023-01-28T13:24:32.804Z,38.62
2023-01-28T13:27:12.672Z,39.35
2023-01-28T13:29:40.670Z,39.20
2023-01-28T13:32:28.386Z,39.68
2023-01-28T13:34:59.281Z,39.13
2023-01-28T13:37:31.386Z,39.65
2023-01-28T13:40:03.141Z,39.30
2023-01-28T13:42:32.453Z,39.24
2023-01-28T13:45:19.952Z,39.39
2023-01-28T13:47:49.260Z,38.52
2023-01-28T13:50:17.779Z,38.22
2023-01-28T13:52:47.613Z,38.07
2023-01-28T13:55:33.701Z,38.56
2023-01-28T13:58:20.938Z,38.25
2023-01-28T14:01:27.259Z,37.50
2023-01-28T14:04:45.560Z,37.93
2023-01-28T14:07:38.291Z,38.78
2023-01-28T14:10:28.106Z,38.47
2023-01-28T14:13:13.861Z,38.49
2023-01-28T14:16:03.365Z,38.58
2023-01-28T14:18:33.751Z,38.73
2023-01-28T14:21:02.740Z,39.24
2023-01-28T14:23:32.297Z,38.77
2023-01-28T14:26:07.135Z,38.82
2023-01-28T14:28:42.397Z,38.41
2023-01-28T14:31:12.754Z,38.57
2023-01-28T14:33:40.600Z,39.04
2023-01-28T14:36:11.237Z,39.03
2023-01-28T14:38:40.516Z,39.29
2023-01-28T14:41:09.004Z,39.26
2023-01-28T14:43:38.261Z,39.24
2023-01-28T14:46:14.746Z,39.35
2023-01-28T14:48:45.948Z,39.36
2023-01-28T14:51:34.313Z,39.20
2023-01-28T14:54:18.778Z,39.04
2023-01-28T14:56:55.614Z,39.47
2023-01-28T14:59:26.123Z,39.94
2023-01-28T15:01:56.782Z,39.72
2023-01-28T15:04:25.930Z,40.04
2023-01-28T15:06:53.776Z,40.03
2023-01-28T15:09:22.167Z,39.96
2023-01-28T15:11:51.455Z,40.42
2023-01-28T15:14:22.729Z,40.06
2023-01-28T15:16:52.038Z,40.63
2023-01-28T15:19:23.207Z,40.84
2023-01-28T15:21:52.772Z,40.82
2023-01-28T15:24:20.484Z,40.86
2023-01-28T15:26:48.426Z,40.88
2023-01-28T15:29:25.178Z,41.62
2023-01-28T15:31:54.625Z,41.26
2023-01-28T15:34:23.460Z,41.19
2023-01-28T15:36:51.227Z,41.03
2023-01-28T15:39:20.280Z,41.82
2023-01-28T15:41:49.890Z,41.40
2023-01-28T15:44:18.886Z,42.05
2023-01-28T15:46:46.647Z,42.17
2023-01-28T15:49:20.016Z,42.22
2023-01-28T15:51:51.038Z,42.17
2023-01-28T15:54:19.349Z,42.51
2023-01-28T15:56:47.142Z,42.60
2023-01-28T15:59:25.127Z,42.19
2023-01-28T16:01:52.980Z,42.98
2023-01-28T16:04:30.367Z,42.21
2023-01-28T16:06:58.984Z,42.68
2023-01-28T16:09:28.500Z,42.72
2023-01-28T16:12:03.338Z,42.60
2023-01-28T16:14:32.393Z,43.74
2023-01-28T16:17:00.164Z,42.83
2023-01-28T16:19:38.620Z,43.85
2023-01-28T16:22:06.499Z,43.34
2023-01-28T16:24:36.205Z,43.97
2023-01-28T16:27:05.761Z,43.52
2023-01-28T16:29:33.519Z,43.36
2023-01-28T16:32:01.406Z,43.46
2023-01-28T16:34:29.272Z,43.86
2023-01-28T16:36:59.821Z,43.97
2023-01-28T16:39:27.663Z,43.96
2023-01-28T16:41:56.873Z,43.73
2023-01-28T16:44:24.931Z,44.03
2023-01-28T16:46:52.733Z,44.14
2023-01-28T16:49:20.538Z,44.79
2023-01-28T16:51:53.247Z,45.19
2023-01-28T16:54:26.744Z,44.77
2023-01-28T16:56:54.643Z,45.25
2023-01-28T16:59:23.481Z,44.88
2023-01-28T17:01:51.415Z,45.05
2023-01-28T17:04:19.264Z,44.91
2023-01-28T17:06:50.391Z,45.61
2023-01-28T17:09:19.032Z,45.52
2023-01-28T17:11:48.558Z,45.35
2023-01-28T17:14:16.335Z,46.17
2023-01-28T17:16:44.177Z,45.26
2023-01-28T17:19:12.158Z,45.37
2023-01-28T17:21:39.970Z,46.04
2023-01-28T17:24:08.844Z,45.80
2023-01-28T17:26:38.070Z,45.83
2023-01-28T17:29:07.250Z,46.04
2023-01-28T17:31:35.446Z,46.70
2023-01-28T17:34:05.504Z,46.63
2023-01-28T17:36:33.530Z,46.11
2023-01-28T17:39:02.534Z,46.78
2023-01-28T17:41:30.705Z,47.22
2023-01-28T17:43:59.541Z,47.21
2023-01-28T17:46:29.374Z,46.33
2023-01-28T17:48:57.258Z,46.29
2023-01-28T17:51:25.104Z,46.89
2023-01-28T17:53:53.819Z,47.27
2023-01-28T17:56:22.554Z,47.21
2023-01-28T17:58:51.666Z,47.73
2023-01-28T18:01:19.890Z,47.55
2023-01-28T18:03:49.089Z,47.49
2023-01-28T18:06:16.808Z,47.65
2023-01-28T18:08:45.733Z,47.70
2023-01-28T18:11:14.277Z,48.18
2023-01-28T18:13:42.161Z,47.62
2023-01-28T18:16:14.491Z,47.45
2023-01-28T18:18:42.242Z,48.46
2023-01-28T18:21:20.235Z,48.35
2023-01-28T18:23:47.957Z,48.50
2023-01-28T18:26:15.652Z,48.26
2023-01-28T18:28:43.616Z,48.55
2023-01-28T18:31:11.615Z,48.65
2023-01-28T18:33:39.915Z,48.38
2023-01-28T18:36:09.571Z,48.33
2023-01-28T18:38:38.892Z,48.89
2023-01-28T18:41:06.857Z,48.36
2023-01-28T18:43:35.462Z,48.53
2023-01-28T18:46:03.486Z,49.43
2023-01-28T18:48:37.076Z,49.27
2023-01-28T18:51:17.483Z,48.88
2023-01-28T18:53:59.093Z,49.29
2023-01-28T18:56:27.327Z,49.78
2023-01-28T18:58:58.117Z,49.08
2023-01-28T19:01:25.923Z,49.63
2023-01-28T19:03:54.776Z,49.60
2023-01-28T19:06:23.697Z,49.68
2023-01-28T19:08:53.436Z,49.49
2023-01-28T19:11:22.698Z,49.25
2023-01-28T19:13:50.562Z,49.64
2023-01-28T19:16:18.361Z,49.95
2023-01-28T19:18:46.518Z,49.46
2023-01-28T19:21:15.257Z,49.66
2023-01-28T19:23:49.950Z,50.33
2023-01-28T19:26:21.229Z,50.28
2023-01-28T19:28:50.658Z,50.33
2023-01-28T19:31:20.595Z,50.11
2023-01-28T19:33:48.400Z,50.13
2023-01-28T19:36:16.472Z,49.99
2023-01-28T19:38:45.029Z,50.33
2023-01-28T19:41:21.012Z,49.45
2023-01-28T19:43:50.267Z,50.38
2023-01-28T19:46:18.406Z,50.31
2023-01-28T19:48:46.418Z,50.56
2023-01-28T19:51:15.581Z,50.42
2023-01-28T19:53:44.262Z,50.66
2023-01-28T19:56:13.418Z,49.84
2023-01-28T19:58:42.186Z,50.68
2023-01-28T20:01:13.933Z,50.60
2023-01-28T20:03:42.720Z,50.61
2023-01-28T20:06:12.572Z,50.90
2023-01-28T20:08:40.481Z,50.63
2023-01-28T20:11:10.310Z,51.11
2023-01-28T20:13:43.405Z,50.75
2023-01-28T20:16:16.478Z,51.37
2023-01-28T20:18:44.527Z,51.32
2023-01-28T20:21:12.369Z,50.88
2023-01-28T20:23:41.371Z,50.96
2023-01-28T20:26:09.699Z,51.20
2023-01-28T20:28:37.703Z,51.15
2023-01-28T20:31:06.373Z,51.08
2023-01-28T20:33:35.565Z,51.20
2023-01-28T20:36:03.518Z,50.91
2023-01-28T20:38:31.459Z,51.07
2023-01-28T20:40:59.175Z,51.54
2023-01-28T20:43:28.675Z,51.30
2023-01-28T20:46:03.306Z,51.51
2023-01-28T20:48:31.236Z,51.58
2023-01-28T20:51:05.695Z,51.50
2023-01-28T20:53:33.629Z,51.24
2023-01-28T20:56:01.419Z,51.29
2023-01-28T20:58:29.249Z,51.49
2023-01-28T21:00:57.005Z,51.40
2023-01-28T21:03:24.991Z,51.51
2023-01-28T21:05:52.908Z,51.58
2023-01-28T21:08:22.053Z,51.52
2023-01-28T21:10:49.916Z,51.60
2023-01-28T21:13:17.656Z,51.67
2023-01-28T21:15:52.744Z,51.99
2023-01-28T21:18:20.496Z,51.78
2023-01-28T21:20:48.148Z,51.45
2023-01-28T21:23:16.032Z,51.86
2023-01-28T21:25:46.488Z,51.72
2023-01-28T21:28:14.378Z,51.83
2023-01-28T21:30:42.405Z,51.85
2023-01-28T21:33:10.578Z,51.78
2023-01-28T21:35:38.745Z,51.91
2023-01-28T21:38:06.564Z,51.81
2023-01-28T21:40:34.933Z,51.65
2023-01-28T21:43:04.021Z,51.92
2023-01-28T21:45:31.742Z,51.94
2023-01-28T21:47:59.510Z,52.04
2023-01-28T21:50:27.278Z,52.11
2023-01-28T21:52:55.360Z,52.18
2023-01-28T21:55:23.118Z,52.94
2023-01-28T21:58:10.987Z,52.33
2023-01-28T22:00:39.224Z,51.72
2023-01-28T22:03:07.060Z,52.28
2023-01-28T22:05:35.895Z,52.52
2023-01-28T22:08:03.633Z,52.47
2023-01-28T22:10:31.406Z,52.49
2023-01-28T22:12:59.164Z,52.66
2023-01-28T22:15:27.268Z,52.43
2023-01-28T22:17:56.514Z,52.75
2023-01-28T22:20:24.324Z,52.72
2023-01-28T22:22:52.080Z,52.67
2023-01-28T22:25:19.891Z,52.89
2023-01-28T22:27:47.756Z,52.71
2023-01-28T22:30:16.181Z,52.90
2023-01-28T22:32:44.094Z,52.98
2023-01-28T22:35:13.341Z,53.05
2023-01-28T22:37:41.201Z,52.90
2023-01-28T22:40:10.492Z,53.08
2023-01-28T22:42:38.254Z,53.05
2023-01-28T22:45:07.211Z,53.17
2023-01-28T22:47:35.137Z,53.11
2023-01-28T22:50:02.890Z,53.17
2023-01-28T22:52:31.996Z,53.54
2023-01-28T22:54:59.870Z,53.07
2023-01-28T22:57:27.618Z,53.24
2023-01-28T23:00:00.307Z,53.32
2023-01-28T23:02:28.502Z,53.32
2023-01-28T23:04:56.320Z,53.01
2023-01-28T23:07:24.145Z,53.29
2023-01-28T23:09:53.270Z,53.25
2023-01-28T23:12:20.943Z,53.44
2023-01-28T23:15:06.072Z,53.41
2023-01-28T23:17:51.608Z,53.43
2023-01-28T23:20:39.365Z,53.36
2023-01-28T23:23:24.854Z,53.55
2023-01-28T23:25:54.201Z,53.57
2023-01-28T23:28:22.039Z,53.53
2023-01-28T23:40:24.367Z,53.76
2023-01-28T23:42:53.608Z,53.69
2023-01-28T23:45:21.589Z,53.52
2023-01-28T23:47:49.276Z,53.68
2023-01-28T23:50:17.958Z,53.66
2023-01-28T23:52:45.696Z,53.94
2023-01-28T23:55:13.321Z,53.78
2023-01-28T23:57:40.984Z,53.87
